sensor_id;sensor_type;location;lat;lon;timestamp;P1;durP1;ratioP1;P2;durP2;ratioP2
1699;SDS011;847;48.058;7.810;2023-04-25T00:01:19;3.90;;;2.77;;
1699;SDS011;847;48.058;7.810;2023-04-25T00:03:47;4.33;;;3.20;;
1699;SDS011;847;48.058;7.810;2023-04-25T00:06:14;7.37;;;3.60;;
1699;SDS011;847;48.058;7.810;2023-04-25T00:08:44;5.07;;;3.17;;
1699;SDS011;847;48.058;7.810;2023-04-25T00:11:10;4.40;;;2.73;;
1699;SDS011;847;48.058;7.810;2023-04-25T00:13:37;4.20;;;3.00;;
1699;SDS011;847;48.058;7.810;2023-04-25T00:16:06;10.77;;;3.47;;
1699;SDS011;847;48.058;7.810;2023-04-25T00:18:33;5.80;;;3.53;;
1699;SDS011;847;48.058;7.810;2023-04-25T00:21:00;2.83;;;2.63;;
1699;SDS011;847;48.058;7.810;2023-04-25T00:23:27;4.63;;;3.40;;
1699;SDS011;847;48.058;7.810;2023-04-25T00:25:55;2.90;;;2.63;;
1699;SDS011;847;48.058;7.810;2023-04-25T00:28:22;4.07;;;2.73;;
1699;SDS011;847;48.058;7.810;2023-04-25T00:30:49;4.07;;;2.77;;
1699;SDS011;847;48.058;7.810;2023-04-25T00:33:16;6.07;;;3.10;;
1699;SDS011;847;48.058;7.810;2023-04-25T00:35:43;5.27;;;3.20;;
1699;SDS011;847;48.058;7.810;2023-04-25T00:38:10;3.67;;;3.17;;
1699;SDS011;847;48.058;7.810;2023-04-25T00:40:36;3.30;;;3.00;;
1699;SDS011;847;48.058;7.810;2023-04-25T00:43:05;5.47;;;2.53;;
1699;SDS011;847;48.058;7.810;2023-04-25T00:45:31;4.00;;;3.17;;
1699;SDS011;847;48.058;7.810;2023-04-25T00:48:02;5.57;;;3.80;;
1699;SDS011;847;48.058;7.810;2023-04-25T00:50:30;4.10;;;2.87;;
1699;SDS011;847;48.058;7.810;2023-04-25T00:52:58;4.70;;;3.93;;
1699;SDS011;847;48.058;7.810;2023-04-25T00:55:25;4.73;;;3.47;;
1699;SDS011;847;48.058;7.810;2023-04-25T00:57:52;5.70;;;3.37;;
1699;SDS011;847;48.058;7.810;2023-04-25T01:00:20;4.17;;;3.07;;
1699;SDS011;847;48.058;7.810;2023-04-25T01:02:47;7.87;;;3.60;;
1699;SDS011;847;48.058;7.810;2023-04-25T01:05:14;3.77;;;3.10;;
1699;SDS011;847;48.058;7.810;2023-04-25T01:07:42;6.40;;;3.27;;
1699;SDS011;847;48.058;7.810;2023-04-25T01:10:09;5.40;;;3.40;;
1699;SDS011;847;48.058;7.810;2023-04-25T01:12:35;5.60;;;3.43;;
1699;SDS011;847;48.058;7.810;2023-04-25T01:15:03;5.60;;;3.50;;
1699;SDS011;847;48.058;7.810;2023-04-25T01:17:31;10.50;;;3.63;;
1699;SDS011;847;48.058;7.810;2023-04-25T01:20:01;4.90;;;3.63;;
1699;SDS011;847;48.058;7.810;2023-04-25T01:22:31;6.80;;;3.57;;
1699;SDS011;847;48.058;7.810;2023-04-25T01:24:58;6.20;;;3.80;;
1699;SDS011;847;48.058;7.810;2023-04-25T01:27:25;4.30;;;3.00;;
1699;SDS011;847;48.058;7.810;2023-04-25T01:29:52;4.33;;;3.40;;
1699;SDS011;847;48.058;7.810;2023-04-25T01:32:20;6.20;;;3.97;;
1699;SDS011;847;48.058;7.810;2023-04-25T01:34:48;5.17;;;3.50;;
1699;SDS011;847;48.058;7.810;2023-04-25T01:37:16;4.20;;;3.63;;
1699;SDS011;847;48.058;7.810;2023-04-25T01:39:44;5.90;;;3.63;;
1699;SDS011;847;48.058;7.810;2023-04-25T01:42:11;6.47;;;4.37;;
1699;SDS011;847;48.058;7.810;2023-04-25T01:44:39;5.37;;;4.07;;
1699;SDS011;847;48.058;7.810;2023-04-25T01:47:06;8.80;;;3.70;;
1699;SDS011;847;48.058;7.810;2023-04-25T01:49:32;8.73;;;4.00;;
1699;SDS011;847;48.058;7.810;2023-04-25T01:51:59;7.23;;;3.63;;
1699;SDS011;847;48.058;7.810;2023-04-25T01:54:26;3.77;;;3.37;;
1699;SDS011;847;48.058;7.810;2023-04-25T01:56:55;5.63;;;5.10;;
1699;SDS011;847;48.058;7.810;2023-04-25T01:59:23;6.87;;;4.60;;
1699;SDS011;847;48.058;7.810;2023-04-25T02:01:50;6.10;;;4.20;;
1699;SDS011;847;48.058;7.810;2023-04-25T02:04:17;8.20;;;3.70;;
1699;SDS011;847;48.058;7.810;2023-04-25T02:06:44;4.07;;;3.67;;
1699;SDS011;847;48.058;7.810;2023-04-25T02:09:10;8.00;;;4.27;;
1699;SDS011;847;48.058;7.810;2023-04-25T02:11:37;10.10;;;4.63;;
1699;SDS011;847;48.058;7.810;2023-04-25T02:14:06;4.70;;;4.20;;
1699;SDS011;847;48.058;7.810;2023-04-25T02:16:32;4.80;;;4.20;;
1699;SDS011;847;48.058;7.810;2023-04-25T02:19:00;6.87;;;4.07;;
1699;SDS011;847;48.058;7.810;2023-04-25T02:21:27;5.97;;;4.43;;
1699;SDS011;847;48.058;7.810;2023-04-25T02:23:55;6.17;;;5.10;;
1699;SDS011;847;48.058;7.810;2023-04-25T02:26:22;4.67;;;4.00;;
1699;SDS011;847;48.058;7.810;2023-04-25T02:28:49;4.73;;;3.90;;
1699;SDS011;847;48.058;7.810;2023-04-25T02:31:18;5.03;;;3.93;;
1699;SDS011;847;48.058;7.810;2023-04-25T02:33:45;6.70;;;3.80;;
1699;SDS011;847;48.058;7.810;2023-04-25T02:36:12;5.40;;;3.77;;
1699;SDS011;847;48.058;7.810;2023-04-25T02:38:39;7.90;;;4.20;;
1699;SDS011;847;48.058;7.810;2023-04-25T02:41:05;5.40;;;4.00;;
1699;SDS011;847;48.058;7.810;2023-04-25T02:43:32;7.27;;;4.27;;
1699;SDS011;847;48.058;7.810;2023-04-25T02:45:59;4.83;;;4.33;;
1699;SDS011;847;48.058;7.810;2023-04-25T02:48:27;4.43;;;4.03;;
1699;SDS011;847;48.058;7.810;2023-04-25T02:50:54;8.03;;;4.27;;
1699;SDS011;847;48.058;7.810;2023-04-25T02:53:21;9.30;;;4.10;;
1699;SDS011;847;48.058;7.810;2023-04-25T02:55:47;8.90;;;3.97;;
1699;SDS011;847;48.058;7.810;2023-04-25T02:58:14;5.50;;;3.70;;
1699;SDS011;847;48.058;7.810;2023-04-25T03:00:42;7.17;;;4.50;;
1699;SDS011;847;48.058;7.810;2023-04-25T03:03:08;5.80;;;3.83;;
1699;SDS011;847;48.058;7.810;2023-04-25T03:05:36;7.63;;;3.70;;
1699;SDS011;847;48.058;7.810;2023-04-25T03:08:03;8.17;;;3.30;;
1699;SDS011;847;48.058;7.810;2023-04-25T03:10:30;5.57;;;3.90;;
1699;SDS011;847;48.058;7.810;2023-04-25T03:12:57;6.13;;;3.63;;
1699;SDS011;847;48.058;7.810;2023-04-25T03:15:23;3.53;;;3.23;;
1699;SDS011;847;48.058;7.810;2023-04-25T03:17:50;4.93;;;3.57;;
1699;SDS011;847;48.058;7.810;2023-04-25T03:20:17;7.23;;;4.57;;
1699;SDS011;847;48.058;7.810;2023-04-25T03:22:45;5.10;;;3.30;;
1699;SDS011;847;48.058;7.810;2023-04-25T03:25:12;5.40;;;3.90;;
1699;SDS011;847;48.058;7.810;2023-04-25T03:27:39;7.70;;;4.40;;
1699;SDS011;847;48.058;7.810;2023-04-25T03:30:06;5.27;;;3.50;;
1699;SDS011;847;48.058;7.810;2023-04-25T03:32:34;6.20;;;4.20;;
1699;SDS011;847;48.058;7.810;2023-04-25T03:35:01;7.40;;;3.87;;
1699;SDS011;847;48.058;7.810;2023-04-25T03:37:28;3.30;;;3.00;;
1699;SDS011;847;48.058;7.810;2023-04-25T03:39:56;10.37;;;3.63;;
1699;SDS011;847;48.058;7.810;2023-04-25T03:42:23;8.30;;;4.40;;
1699;SDS011;847;48.058;7.810;2023-04-25T03:44:51;8.07;;;4.20;;
1699;SDS011;847;48.058;7.810;2023-04-25T03:47:18;8.93;;;4.77;;
1699;SDS011;847;48.058;7.810;2023-04-25T03:49:44;6.63;;;3.80;;
1699;SDS011;847;48.058;7.810;2023-04-25T03:52:11;6.03;;;3.60;;
1699;SDS011;847;48.058;7.810;2023-04-25T03:54:38;5.13;;;3.67;;
1699;SDS011;847;48.058;7.810;2023-04-25T03:57:06;4.13;;;3.40;;
1699;SDS011;847;48.058;7.810;2023-04-25T03:59:33;5.53;;;3.80;;
1699;SDS011;847;48.058;7.810;2023-04-25T04:01:59;4.90;;;3.50;;
1699;SDS011;847;48.058;7.810;2023-04-25T04:04:26;4.30;;;3.90;;
1699;SDS011;847;48.058;7.810;2023-04-25T04:06:53;6.97;;;3.80;;
1699;SDS011;847;48.058;7.810;2023-04-25T04:09:20;8.33;;;4.30;;
1699;SDS011;847;48.058;7.810;2023-04-25T04:11:47;4.50;;;3.67;;
1699;SDS011;847;48.058;7.810;2023-04-25T04:14:15;4.27;;;3.90;;
1699;SDS011;847;48.058;7.810;2023-04-25T04:16:42;4.20;;;3.80;;
1699;SDS011;847;48.058;7.810;2023-04-25T04:19:08;5.20;;;3.57;;
1699;SDS011;847;48.058;7.810;2023-04-25T04:21:35;6.20;;;4.27;;
1699;SDS011;847;48.058;7.810;2023-04-25T04:24:02;4.50;;;3.60;;
1699;SDS011;847;48.058;7.810;2023-04-25T04:26:31;5.37;;;4.00;;
1699;SDS011;847;48.058;7.810;2023-04-25T04:28:58;5.07;;;3.90;;
1699;SDS011;847;48.058;7.810;2023-04-25T04:31:26;5.60;;;3.90;;
1699;SDS011;847;48.058;7.810;2023-04-25T04:33:53;6.10;;;3.70;;
1699;SDS011;847;48.058;7.810;2023-04-25T04:36:20;5.13;;;3.97;;
1699;SDS011;847;48.058;7.810;2023-04-25T04:38:50;5.60;;;4.63;;
1699;SDS011;847;48.058;7.810;2023-04-25T04:41:17;4.83;;;3.60;;
1699;SDS011;847;48.058;7.810;2023-04-25T04:43:45;4.40;;;4.00;;
1699;SDS011;847;48.058;7.810;2023-04-25T04:46:12;6.43;;;4.47;;
1699;SDS011;847;48.058;7.810;2023-04-25T04:48:40;4.60;;;4.03;;
1699;SDS011;847;48.058;7.810;2023-04-25T04:51:07;5.70;;;3.90;;
1699;SDS011;847;48.058;7.810;2023-04-25T04:53:34;7.80;;;4.03;;
1699;SDS011;847;48.058;7.810;2023-04-25T04:56:01;6.43;;;4.10;;
1699;SDS011;847;48.058;7.810;2023-04-25T04:58:28;8.33;;;4.37;;
1699;SDS011;847;48.058;7.810;2023-04-25T05:00:55;7.17;;;4.53;;
1699;SDS011;847;48.058;7.810;2023-04-25T05:03:22;8.53;;;4.87;;
1699;SDS011;847;48.058;7.810;2023-04-25T05:05:50;5.20;;;4.40;;
1699;SDS011;847;48.058;7.810;2023-04-25T05:08:17;5.10;;;4.60;;
1699;SDS011;847;48.058;7.810;2023-04-25T05:10:43;5.00;;;4.13;;
1699;SDS011;847;48.058;7.810;2023-04-25T05:13:10;6.97;;;4.80;;
1699;SDS011;847;48.058;7.810;2023-04-25T05:15:37;5.50;;;4.00;;
1699;SDS011;847;48.058;7.810;2023-04-25T05:18:04;7.30;;;4.73;;
1699;SDS011;847;48.058;7.810;2023-04-25T05:20:30;7.53;;;4.80;;
1699;SDS011;847;48.058;7.810;2023-04-25T05:22:59;6.93;;;4.43;;
1699;SDS011;847;48.058;7.810;2023-04-25T05:25:26;6.63;;;4.30;;
1699;SDS011;847;48.058;7.810;2023-04-25T05:27:52;6.93;;;4.67;;
1699;SDS011;847;48.058;7.810;2023-04-25T05:30:19;5.10;;;4.37;;
1699;SDS011;847;48.058;7.810;2023-04-25T05:32:46;7.90;;;4.90;;
1699;SDS011;847;48.058;7.810;2023-04-25T05:35:13;4.60;;;4.00;;
1699;SDS011;847;48.058;7.810;2023-04-25T05:37:40;4.03;;;3.63;;
1699;SDS011;847;48.058;7.810;2023-04-25T05:40:09;6.17;;;4.67;;
1699;SDS011;847;48.058;7.810;2023-04-25T05:42:36;7.33;;;4.30;;
1699;SDS011;847;48.058;7.810;2023-04-25T05:45:03;5.77;;;3.87;;
1699;SDS011;847;48.058;7.810;2023-04-25T05:47:30;5.13;;;4.20;;
1699;SDS011;847;48.058;7.810;2023-04-25T05:49:57;5.17;;;4.00;;
1699;SDS011;847;48.058;7.810;2023-04-25T05:52:23;4.03;;;3.30;;
1699;SDS011;847;48.058;7.810;2023-04-25T05:54:50;5.90;;;3.30;;
1699;SDS011;847;48.058;7.810;2023-04-25T05:57:22;4.57;;;3.70;;
1699;SDS011;847;48.058;7.810;2023-04-25T05:59:51;4.40;;;2.90;;
1699;SDS011;847;48.058;7.810;2023-04-25T06:02:18;6.33;;;2.80;;
1699;SDS011;847;48.058;7.810;2023-04-25T06:04:45;2.60;;;2.20;;
1699;SDS011;847;48.058;7.810;2023-04-25T06:07:12;3.37;;;2.07;;
1699;SDS011;847;48.058;7.810;2023-04-25T06:09:39;3.23;;;1.63;;
1699;SDS011;847;48.058;7.810;2023-04-25T06:12:06;5.80;;;2.40;;
1699;SDS011;847;48.058;7.810;2023-04-25T06:14:34;2.57;;;2.33;;
1699;SDS011;847;48.058;7.810;2023-04-25T06:17:01;4.30;;;1.70;;
1699;SDS011;847;48.058;7.810;2023-04-25T06:19:33;1.53;;;1.20;;
1699;SDS011;847;48.058;7.810;2023-04-25T06:22:01;3.33;;;2.37;;
1699;SDS011;847;48.058;7.810;2023-04-25T06:24:28;2.00;;;1.70;;
1699;SDS011;847;48.058;7.810;2023-04-25T06:26:55;1.90;;;1.67;;
1699;SDS011;847;48.058;7.810;2023-04-25T06:29:21;1.53;;;1.43;;
1699;SDS011;847;48.058;7.810;2023-04-25T06:31:49;3.03;;;1.83;;
1699;SDS011;847;48.058;7.810;2023-04-25T06:34:16;1.60;;;1.50;;
1699;SDS011;847;48.058;7.810;2023-04-25T06:36:43;1.53;;;1.40;;
1699;SDS011;847;48.058;7.810;2023-04-25T06:39:10;3.90;;;1.80;;
1699;SDS011;847;48.058;7.810;2023-04-25T06:41:37;2.10;;;1.80;;
1699;SDS011;847;48.058;7.810;2023-04-25T06:44:03;1.90;;;1.60;;
1699;SDS011;847;48.058;7.810;2023-04-25T06:46:31;3.77;;;1.50;;
1699;SDS011;847;48.058;7.810;2023-04-25T06:48:59;1.93;;;1.23;;
1699;SDS011;847;48.058;7.810;2023-04-25T06:51:25;3.07;;;1.60;;
1699;SDS011;847;48.058;7.810;2023-04-25T06:53:54;2.37;;;1.60;;
1699;SDS011;847;48.058;7.810;2023-04-25T06:56:21;1.70;;;1.37;;
1699;SDS011;847;48.058;7.810;2023-04-25T06:58:48;1.83;;;1.20;;
1699;SDS011;847;48.058;7.810;2023-04-25T07:01:15;2.10;;;1.90;;
1699;SDS011;847;48.058;7.810;2023-04-25T07:03:41;2.10;;;1.90;;
1699;SDS011;847;48.058;7.810;2023-04-25T07:06:09;4.87;;;1.80;;
1699;SDS011;847;48.058;7.810;2023-04-25T07:08:39;2.60;;;1.77;;
1699;SDS011;847;48.058;7.810;2023-04-25T07:11:06;3.20;;;2.00;;
1699;SDS011;847;48.058;7.810;2023-04-25T07:13:32;2.03;;;1.80;;
1699;SDS011;847;48.058;7.810;2023-04-25T07:15:59;2.53;;;2.17;;
1699;SDS011;847;48.058;7.810;2023-04-25T07:18:26;2.20;;;2.00;;
1699;SDS011;847;48.058;7.810;2023-04-25T07:20:53;3.47;;;2.10;;
1699;SDS011;847;48.058;7.810;2023-04-25T07:23:21;2.90;;;2.20;;
1699;SDS011;847;48.058;7.810;2023-04-25T07:25:48;2.90;;;2.60;;
1699;SDS011;847;48.058;7.810;2023-04-25T07:28:14;3.33;;;3.00;;
1699;SDS011;847;48.058;7.810;2023-04-25T07:30:41;3.50;;;3.20;;
1699;SDS011;847;48.058;7.810;2023-04-25T07:33:08;3.50;;;2.67;;
1699;SDS011;847;48.058;7.810;2023-04-25T07:35:35;2.57;;;2.20;;
1699;SDS011;847;48.058;7.810;2023-04-25T07:38:02;2.33;;;2.00;;
1699;SDS011;847;48.058;7.810;2023-04-25T07:40:30;2.93;;;2.17;;
1699;SDS011;847;48.058;7.810;2023-04-25T07:42:57;4.33;;;3.93;;
1699;SDS011;847;48.058;7.810;2023-04-25T07:45:24;4.60;;;4.20;;
1699;SDS011;847;48.058;7.810;2023-04-25T07:47:50;2.80;;;2.60;;
1699;SDS011;847;48.058;7.810;2023-04-25T07:50:17;4.67;;;3.10;;
1699;SDS011;847;48.058;7.810;2023-04-25T07:52:44;2.77;;;2.57;;
1699;SDS011;847;48.058;7.810;2023-04-25T07:55:11;2.73;;;2.27;;
1699;SDS011;847;48.058;7.810;2023-04-25T07:57:39;3.10;;;2.80;;
1699;SDS011;847;48.058;7.810;2023-04-25T08:00:06;2.70;;;2.50;;
1699;SDS011;847;48.058;7.810;2023-04-25T08:02:36;3.63;;;2.73;;
1699;SDS011;847;48.058;7.810;2023-04-25T08:05:03;9.13;;;3.07;;
1699;SDS011;847;48.058;7.810;2023-04-25T08:07:33;3.13;;;2.40;;
1699;SDS011;847;48.058;7.810;2023-04-25T08:09:59;4.60;;;2.27;;
1699;SDS011;847;48.058;7.810;2023-04-25T08:12:26;3.50;;;2.53;;
1699;SDS011;847;48.058;7.810;2023-04-25T08:14:56;2.67;;;2.47;;
1699;SDS011;847;48.058;7.810;2023-04-25T08:17:23;2.60;;;2.40;;
1699;SDS011;847;48.058;7.810;2023-04-25T08:19:50;3.40;;;2.63;;
1699;SDS011;847;48.058;7.810;2023-04-25T08:22:17;2.93;;;2.10;;
1699;SDS011;847;48.058;7.810;2023-04-25T08:24:43;2.40;;;2.17;;
1699;SDS011;847;48.058;7.810;2023-04-25T08:27:10;2.50;;;2.30;;
1699;SDS011;847;48.058;7.810;2023-04-25T08:29:37;3.70;;;1.93;;
1699;SDS011;847;48.058;7.810;2023-04-25T08:32:05;2.70;;;2.40;;
1699;SDS011;847;48.058;7.810;2023-04-25T08:34:32;5.57;;;2.80;;
1699;SDS011;847;48.058;7.810;2023-04-25T08:36:59;3.47;;;2.73;;
1699;SDS011;847;48.058;7.810;2023-04-25T08:39:25;3.57;;;2.60;;
1699;SDS011;847;48.058;7.810;2023-04-25T08:41:52;2.63;;;2.10;;
1699;SDS011;847;48.058;7.810;2023-04-25T08:44:19;2.73;;;2.53;;
1699;SDS011;847;48.058;7.810;2023-04-25T08:46:46;2.83;;;2.40;;
1699;SDS011;847;48.058;7.810;2023-04-25T08:49:16;3.60;;;2.60;;
1699;SDS011;847;48.058;7.810;2023-04-25T08:51:44;2.43;;;2.23;;
1699;SDS011;847;48.058;7.810;2023-04-25T08:54:13;3.07;;;2.73;;
1699;SDS011;847;48.058;7.810;2023-04-25T08:56:40;3.13;;;2.83;;
1699;SDS011;847;48.058;7.810;2023-04-25T08:59:11;2.43;;;2.23;;
1699;SDS011;847;48.058;7.810;2023-04-25T09:01:41;3.40;;;2.90;;
1699;SDS011;847;48.058;7.810;2023-04-25T09:04:08;2.60;;;2.40;;
1699;SDS011;847;48.058;7.810;2023-04-25T09:06:36;2.83;;;2.50;;
1699;SDS011;847;48.058;7.810;2023-04-25T09:09:03;3.10;;;2.33;;
1699;SDS011;847;48.058;7.810;2023-04-25T09:11:31;3.80;;;3.40;;
1699;SDS011;847;48.058;7.810;2023-04-25T09:14:13;3.70;;;3.10;;
1699;SDS011;847;48.058;7.810;2023-04-25T09:16:56;2.70;;;2.50;;
1699;SDS011;847;48.058;7.810;2023-04-25T09:19:28;2.67;;;2.47;;
1699;SDS011;847;48.058;7.810;2023-04-25T09:21:57;4.47;;;3.37;;
1699;SDS011;847;48.058;7.810;2023-04-25T09:24:33;4.87;;;3.20;;
1699;SDS011;847;48.058;7.810;2023-04-25T09:27:02;3.27;;;2.70;;
1699;SDS011;847;48.058;7.810;2023-04-25T09:29:30;3.87;;;3.23;;
1699;SDS011;847;48.058;7.810;2023-04-25T09:32:14;3.60;;;3.30;;
1699;SDS011;847;48.058;7.810;2023-04-25T09:34:42;10.80;;;9.33;;
1699;SDS011;847;48.058;7.810;2023-04-25T09:37:16;6.00;;;4.80;;
1699;SDS011;847;48.058;7.810;2023-04-25T09:39:45;4.17;;;3.70;;
1699;SDS011;847;48.058;7.810;2023-04-25T09:42:12;3.40;;;3.07;;
1699;SDS011;847;48.058;7.810;2023-04-25T09:44:41;5.37;;;3.50;;
1699;SDS011;847;48.058;7.810;2023-04-25T09:47:09;3.20;;;2.90;;
1699;SDS011;847;48.058;7.810;2023-04-25T09:49:38;2.97;;;2.60;;
1699;SDS011;847;48.058;7.810;2023-04-25T09:52:07;5.30;;;3.07;;
1699;SDS011;847;48.058;7.810;2023-04-25T09:54:35;3.20;;;2.90;;
1699;SDS011;847;48.058;7.810;2023-04-25T09:57:03;3.20;;;2.90;;
1699;SDS011;847;48.058;7.810;2023-04-25T09:59:37;3.40;;;3.10;;
1699;SDS011;847;48.058;7.810;2023-04-25T10:02:06;5.40;;;3.33;;
1699;SDS011;847;48.058;7.810;2023-04-25T10:04:34;2.80;;;2.60;;
1699;SDS011;847;48.058;7.810;2023-04-25T10:07:01;4.20;;;3.23;;
1699;SDS011;847;48.058;7.810;2023-04-25T10:09:31;5.10;;;2.90;;
1699;SDS011;847;48.058;7.810;2023-04-25T10:12:00;3.67;;;3.23;;
1699;SDS011;847;48.058;7.810;2023-04-25T10:14:29;5.53;;;4.70;;
1699;SDS011;847;48.058;7.810;2023-04-25T10:16:57;6.20;;;3.03;;
1699;SDS011;847;48.058;7.810;2023-04-25T10:19:24;3.90;;;2.83;;
1699;SDS011;847;48.058;7.810;2023-04-25T10:21:52;5.93;;;3.23;;
1699;SDS011;847;48.058;7.810;2023-04-25T10:24:21;4.50;;;4.20;;
1699;SDS011;847;48.058;7.810;2023-04-25T10:26:49;3.30;;;2.87;;
1699;SDS011;847;48.058;7.810;2023-04-25T10:29:22;4.70;;;2.90;;
1699;SDS011;847;48.058;7.810;2023-04-25T10:31:50;3.67;;;3.30;;
1699;SDS011;847;48.058;7.810;2023-04-25T10:34:17;4.40;;;4.00;;
1699;SDS011;847;48.058;7.810;2023-04-25T10:36:49;3.47;;;3.10;;
1699;SDS011;847;48.058;7.810;2023-04-25T10:39:21;5.10;;;2.70;;
1699;SDS011;847;48.058;7.810;2023-04-25T10:41:52;4.37;;;3.40;;
1699;SDS011;847;48.058;7.810;2023-04-25T10:44:22;3.80;;;2.80;;
1699;SDS011;847;48.058;7.810;2023-04-25T10:46:52;3.30;;;3.00;;
1699;SDS011;847;48.058;7.810;2023-04-25T10:52:17;3.20;;;2.90;;
1699;SDS011;847;48.058;7.810;2023-04-25T10:54:51;2.87;;;2.57;;
1699;SDS011;847;48.058;7.810;2023-04-25T10:57:28;3.80;;;3.10;;
1699;SDS011;847;48.058;7.810;2023-04-25T11:00:01;5.00;;;3.13;;
1699;SDS011;847;48.058;7.810;2023-04-25T11:02:36;2.80;;;2.57;;
1699;SDS011;847;48.058;7.810;2023-04-25T11:05:04;5.50;;;3.97;;
1699;SDS011;847;48.058;7.810;2023-04-25T11:07:33;3.40;;;2.97;;
1699;SDS011;847;48.058;7.810;2023-04-25T11:10:04;3.30;;;2.73;;
1699;SDS011;847;48.058;7.810;2023-04-25T11:12:31;3.17;;;2.90;;
1699;SDS011;847;48.058;7.810;2023-04-25T11:15:00;3.83;;;3.00;;
1699;SDS011;847;48.058;7.810;2023-04-25T11:17:28;3.23;;;2.80;;
1699;SDS011;847;48.058;7.810;2023-04-25T11:19:55;3.23;;;2.80;;
1699;SDS011;847;48.058;7.810;2023-04-25T11:22:26;3.17;;;2.37;;
1699;SDS011;847;48.058;7.810;2023-04-25T11:24:53;2.57;;;2.30;;
1699;SDS011;847;48.058;7.810;2023-04-25T11:27:23;2.83;;;2.50;;
1699;SDS011;847;48.058;7.810;2023-04-25T11:29:50;5.07;;;4.57;;
1699;SDS011;847;48.058;7.810;2023-04-25T11:32:18;4.00;;;3.57;;
1699;SDS011;847;48.058;7.810;2023-04-25T11:34:46;2.93;;;2.70;;
1699;SDS011;847;48.058;7.810;2023-04-25T11:37:13;3.37;;;2.60;;
1699;SDS011;847;48.058;7.810;2023-04-25T11:39:44;6.30;;;3.00;;
1699;SDS011;847;48.058;7.810;2023-04-25T11:42:12;3.27;;;2.90;;
1699;SDS011;847;48.058;7.810;2023-04-25T11:44:39;2.87;;;2.67;;
1699;SDS011;847;48.058;7.810;2023-04-25T11:47:06;3.03;;;2.73;;
1699;SDS011;847;48.058;7.810;2023-04-25T11:49:34;2.83;;;2.53;;
1699;SDS011;847;48.058;7.810;2023-04-25T11:52:01;4.60;;;2.37;;
1699;SDS011;847;48.058;7.810;2023-04-25T11:54:28;4.47;;;2.90;;
1699;SDS011;847;48.058;7.810;2023-04-25T11:56:55;3.43;;;2.70;;
1699;SDS011;847;48.058;7.810;2023-04-25T11:59:23;2.20;;;1.87;;
1699;SDS011;847;48.058;7.810;2023-04-25T12:01:51;4.33;;;3.20;;
1699;SDS011;847;48.058;7.810;2023-04-25T12:04:19;3.77;;;3.43;;
1699;SDS011;847;48.058;7.810;2023-04-25T12:06:49;2.40;;;1.43;;
1699;SDS011;847;48.058;7.810;2023-04-25T12:09:17;1.70;;;1.20;;
1699;SDS011;847;48.058;7.810;2023-04-25T12:11:46;3.30;;;2.90;;
1699;SDS011;847;48.058;7.810;2023-04-25T12:14:22;2.73;;;2.10;;
1699;SDS011;847;48.058;7.810;2023-04-25T12:16:50;2.80;;;1.67;;
1699;SDS011;847;48.058;7.810;2023-04-25T12:19:19;1.57;;;1.10;;
1699;SDS011;847;48.058;7.810;2023-04-25T12:21:46;2.00;;;0.90;;
1699;SDS011;847;48.058;7.810;2023-04-25T12:24:15;3.40;;;1.20;;
1699;SDS011;847;48.058;7.810;2023-04-25T12:26:47;1.80;;;1.70;;
1699;SDS011;847;48.058;7.810;2023-04-25T12:29:16;2.60;;;1.53;;
1699;SDS011;847;48.058;7.810;2023-04-25T12:31:43;3.30;;;2.80;;
1699;SDS011;847;48.058;7.810;2023-04-25T12:34:11;2.00;;;1.47;;
1699;SDS011;847;48.058;7.810;2023-04-25T12:36:38;1.47;;;1.37;;
1699;SDS011;847;48.058;7.810;2023-04-25T12:39:06;1.43;;;1.33;;
1699;SDS011;847;48.058;7.810;2023-04-25T12:41:33;3.90;;;2.20;;
1699;SDS011;847;48.058;7.810;2023-04-25T12:44:00;2.00;;;1.90;;
1699;SDS011;847;48.058;7.810;2023-04-25T12:46:27;2.23;;;2.03;;
1699;SDS011;847;48.058;7.810;2023-04-25T12:48:53;2.43;;;1.60;;
1699;SDS011;847;48.058;7.810;2023-04-25T12:51:21;2.43;;;2.10;;
1699;SDS011;847;48.058;7.810;2023-04-25T12:53:50;3.83;;;2.20;;
1699;SDS011;847;48.058;7.810;2023-04-25T12:56:18;2.40;;;2.20;;
1699;SDS011;847;48.058;7.810;2023-04-25T12:58:45;2.40;;;1.97;;
1699;SDS011;847;48.058;7.810;2023-04-25T13:01:13;2.60;;;2.40;;
1699;SDS011;847;48.058;7.810;2023-04-25T13:03:40;1.97;;;1.87;;
1699;SDS011;847;48.058;7.810;2023-04-25T13:06:07;2.20;;;2.07;;
1699;SDS011;847;48.058;7.810;2023-04-25T13:08:34;3.60;;;2.63;;
1699;SDS011;847;48.058;7.810;2023-04-25T13:11:02;2.00;;;1.60;;
1699;SDS011;847;48.058;7.810;2023-04-25T13:13:30;1.23;;;1.13;;
1699;SDS011;847;48.058;7.810;2023-04-25T13:15:59;1.33;;;1.23;;
1699;SDS011;847;48.058;7.810;2023-04-25T13:18:26;1.73;;;1.63;;
1699;SDS011;847;48.058;7.810;2023-04-25T13:20:53;1.37;;;1.27;;
1699;SDS011;847;48.058;7.810;2023-04-25T13:23:20;1.60;;;1.50;;
1699;SDS011;847;48.058;7.810;2023-04-25T13:25:47;1.47;;;1.37;;
1699;SDS011;847;48.058;7.810;2023-04-25T13:28:14;2.23;;;1.57;;
1699;SDS011;847;48.058;7.810;2023-04-25T13:30:42;1.30;;;1.20;;
1699;SDS011;847;48.058;7.810;2023-04-25T13:33:09;1.60;;;1.27;;
1699;SDS011;847;48.058;7.810;2023-04-25T13:35:36;2.07;;;1.40;;
1699;SDS011;847;48.058;7.810;2023-04-25T13:38:03;1.20;;;1.10;;
1699;SDS011;847;48.058;7.810;2023-04-25T13:40:30;1.30;;;1.20;;
1699;SDS011;847;48.058;7.810;2023-04-25T13:42:58;1.53;;;1.43;;
1699;SDS011;847;48.058;7.810;2023-04-25T13:45:25;2.13;;;0.90;;
1699;SDS011;847;48.058;7.810;2023-04-25T13:47:53;2.40;;;1.03;;
1699;SDS011;847;48.058;7.810;2023-04-25T13:50:20;3.40;;;1.00;;
1699;SDS011;847;48.058;7.810;2023-04-25T13:52:47;1.93;;;1.30;;
1699;SDS011;847;48.058;7.810;2023-04-25T13:55:13;1.47;;;1.20;;
1699;SDS011;847;48.058;7.810;2023-04-25T13:57:40;2.83;;;1.20;;
1699;SDS011;847;48.058;7.810;2023-04-25T14:00:07;2.00;;;1.00;;
1699;SDS011;847;48.058;7.810;2023-04-25T14:02:35;1.17;;;1.07;;
1699;SDS011;847;48.058;7.810;2023-04-25T14:05:04;1.17;;;1.00;;
1699;SDS011;847;48.058;7.810;2023-04-25T14:07:31;1.27;;;1.17;;
1699;SDS011;847;48.058;7.810;2023-04-25T14:09:59;1.20;;;1.10;;
1699;SDS011;847;48.058;7.810;2023-04-25T14:12:26;1.23;;;1.13;;
1699;SDS011;847;48.058;7.810;2023-04-25T14:14:53;7.00;;;1.43;;
1699;SDS011;847;48.058;7.810;2023-04-25T14:17:20;2.53;;;1.50;;
1699;SDS011;847;48.058;7.810;2023-04-25T14:19:46;3.03;;;1.23;;
1699;SDS011;847;48.058;7.810;2023-04-25T14:22:14;1.30;;;1.03;;
1699;SDS011;847;48.058;7.810;2023-04-25T14:24:41;2.10;;;0.90;;
1699;SDS011;847;48.058;7.810;2023-04-25T14:27:08;1.10;;;1.00;;
1699;SDS011;847;48.058;7.810;2023-04-25T14:29:35;1.67;;;1.40;;
1699;SDS011;847;48.058;7.810;2023-04-25T14:32:02;2.53;;;2.33;;
1699;SDS011;847;48.058;7.810;2023-04-25T14:34:30;1.73;;;1.63;;
1699;SDS011;847;48.058;7.810;2023-04-25T14:36:57;1.93;;;1.73;;
1699;SDS011;847;48.058;7.810;2023-04-25T14:39:25;2.53;;;1.20;;
1699;SDS011;847;48.058;7.810;2023-04-25T14:41:51;2.40;;;1.47;;
1699;SDS011;847;48.058;7.810;2023-04-25T14:44:18;1.10;;;1.00;;
1699;SDS011;847;48.058;7.810;2023-04-25T14:46:45;1.53;;;1.37;;
1699;SDS011;847;48.058;7.810;2023-04-25T14:49:12;4.70;;;1.60;;
1699;SDS011;847;48.058;7.810;2023-04-25T14:51:39;1.50;;;1.40;;
1699;SDS011;847;48.058;7.810;2023-04-25T14:54:06;2.30;;;1.60;;
1699;SDS011;847;48.058;7.810;2023-04-25T14:56:34;5.27;;;2.13;;
1699;SDS011;847;48.058;7.810;2023-04-25T14:59:01;2.00;;;1.57;;
1699;SDS011;847;48.058;7.810;2023-04-25T15:01:28;2.77;;;1.20;;
1699;SDS011;847;48.058;7.810;2023-04-25T15:03:55;1.60;;;1.50;;
1699;SDS011;847;48.058;7.810;2023-04-25T15:06:22;1.70;;;1.60;;
1699;SDS011;847;48.058;7.810;2023-04-25T15:08:51;1.40;;;1.30;;
1699;SDS011;847;48.058;7.810;2023-04-25T15:11:18;1.90;;;1.80;;
1699;SDS011;847;48.058;7.810;2023-04-25T15:13:46;2.20;;;2.00;;
1699;SDS011;847;48.058;7.810;2023-04-25T15:16:13;1.90;;;1.80;;
1699;SDS011;847;48.058;7.810;2023-04-25T15:18:40;2.80;;;2.17;;
1699;SDS011;847;48.058;7.810;2023-04-25T15:21:06;1.63;;;1.53;;
1699;SDS011;847;48.058;7.810;2023-04-25T15:23:33;2.40;;;1.80;;
1699;SDS011;847;48.058;7.810;2023-04-25T15:26:00;3.40;;;1.87;;
1699;SDS011;847;48.058;7.810;2023-04-25T15:28:27;1.70;;;1.60;;
1699;SDS011;847;48.058;7.810;2023-04-25T15:30:55;1.90;;;1.73;;
1699;SDS011;847;48.058;7.810;2023-04-25T15:33:22;2.00;;;1.90;;
1699;SDS011;847;48.058;7.810;2023-04-25T15:35:49;2.80;;;2.60;;